Bacup, United Kingdom
Current Conditions -  °F | °C
As of 1:20 PM on Tuesday 21 Oct 2014 (Local Time) from EGCC Reporting Station
Rain Showers Rain Showers  
Wind Chill: 11°   Ceiling: 4100
Heat Index: 11°   Visibility: 6mi
Dew Point:   Wind: 31mph
Humidity: 58%   Direction: 300°WNW
Pressure: 29.65"   Gusts: 51mph
Location:  53.7°N, 2.2°W
Report Text: EGCC 211220Z 30027G44KT 9999 VCSH FEW035CB BKN041 11/03 Q1004
Loading
Personal Weather Stations






























Interactive Weather Map
Tropical Storm Tracking
New forecast layout! Learn more

10-Day Weather Forecast

Advertisements
Track Severe Weather on mobile